INDIA METEOROLOGICAL DEPARTMENT, R.M.C. NEW DELHI
Dated:25 - 6 - 2017
METARS OF ALTERNATE AIRPORTS
Delhi      
VIDP 251030Z 05007KT 4000 HZ FEW040 FEW040TCU SCT100 40/23 Q0997 NOSIG=
Amritsar   
VIAR 251030Z 18005KT 6000 FEW040 SCT100 38/22 Q0997 NOSIG=
Lucknow    
VILK 251000Z VRB02KT 4000 HZ SCT020 SCT025 FEW030CB BKN100 40/27 Q0996 NOSIG=
Jaipur     
VIJP 251030Z 10003KT 5000 HZ SCT035 SCT040 39/17 Q0997 NOSIG=
Ahmedabad  
VAAH 251000Z 00000KT 6000 SCT020 SCT025 38/23 Q0996 NOSIG=
Udaipur    
VAUD 251030Z 08008KT 6000 TS SCT020 FEW030 FEW 035CB BKN050 34/22 Q1000 TEMPO 3000 TSRA=
Mumbai     
VABB 251030Z 18006KT 2200 VCSH FEW012 SCT018 FEW030CB BKN090 26/25 Q0999 TEMPO 1500 SHRA=